sensor_id;sensor_type;location;lat;lon;timestamp;temperature;humidity
67005;HTU21D;53920;51.094;5.902;2023-04-06T00:02:18;3.60;67.51
67005;HTU21D;53920;51.094;5.902;2023-04-06T00:04:44;3.60;67.39
67005;HTU21D;53920;51.094;5.902;2023-04-06T00:07:10;3.62;67.40
67005;HTU21D;53920;51.094;5.902;2023-04-06T00:09:36;3.61;67.73
67005;HTU21D;53920;51.094;5.902;2023-04-06T00:12:02;3.62;67.65
67005;HTU21D;53920;51.094;5.902;2023-04-06T00:14:28;3.62;68.02
67005;HTU21D;53920;51.094;5.902;2023-04-06T00:16:55;3.65;68.04
67005;HTU21D;53920;51.094;5.902;2023-04-06T00:19:21;3.69;68.11
67005;HTU21D;53920;51.094;5.902;2023-04-06T00:21:47;3.68;67.94
67005;HTU21D;53920;51.094;5.902;2023-04-06T00:24:13;3.59;67.65
67005;HTU21D;53920;51.094;5.902;2023-04-06T00:26:39;3.54;67.94
67005;HTU21D;53920;51.094;5.902;2023-04-06T00:29:05;3.52;68.01
67005;HTU21D;53920;51.094;5.902;2023-04-06T00:31:31;3.52;68.27
67005;HTU21D;53920;51.094;5.902;2023-04-06T00:33:57;3.52;68.58
67005;HTU21D;53920;51.094;5.902;2023-04-06T00:36:23;3.54;68.46
67005;HTU21D;53920;51.094;5.902;2023-04-06T00:38:50;3.52;68.32
67005;HTU21D;53920;51.094;5.902;2023-04-06T00:41:17;3.52;68.77
67005;HTU21D;53920;51.094;5.902;2023-04-06T00:43:46;3.53;68.46
67005;HTU21D;53920;51.094;5.902;2023-04-06T00:46:12;3.46;68.15
67005;HTU21D;53920;51.094;5.902;2023-04-06T00:48:38;3.35;68.07
67005;HTU21D;53920;51.094;5.902;2023-04-06T00:51:05;3.23;68.21
67005;HTU21D;53920;51.094;5.902;2023-04-06T00:53:31;3.09;68.39
67005;HTU21D;53920;51.094;5.902;2023-04-06T00:55:59;3.00;68.57
67005;HTU21D;53920;51.094;5.902;2023-04-06T00:58:26;2.93;68.90
67005;HTU21D;53920;51.094;5.902;2023-04-06T01:01:02;2.84;69.19
67005;HTU21D;53920;51.094;5.902;2023-04-06T01:03:28;2.78;69.46
67005;HTU21D;53920;51.094;5.902;2023-04-06T01:05:54;2.76;69.71
67005;HTU21D;53920;51.094;5.902;2023-04-06T01:08:28;2.76;69.35
67005;HTU21D;53920;51.094;5.902;2023-04-06T01:11:07;2.66;69.78
67005;HTU21D;53920;51.094;5.902;2023-04-06T01:13:33;2.61;69.97
67005;HTU21D;53920;51.094;5.902;2023-04-06T01:16:03;2.56;70.09
67005;HTU21D;53920;51.094;5.902;2023-04-06T01:18:46;2.57;70.58
67005;HTU21D;53920;51.094;5.902;2023-04-06T01:21:19;2.56;70.82
67005;HTU21D;53920;51.094;5.902;2023-04-06T01:23:59;2.55;70.88
67005;HTU21D;53920;51.094;5.902;2023-04-06T01:26:34;2.54;70.49
67005;HTU21D;53920;51.094;5.902;2023-04-06T01:29:04;2.55;70.75
67005;HTU21D;53920;51.094;5.902;2023-04-06T01:31:30;2.55;70.94
67005;HTU21D;53920;51.094;5.902;2023-04-06T01:33:57;2.57;71.13
67005;HTU21D;53920;51.094;5.902;2023-04-06T01:36:24;2.59;71.14
67005;HTU21D;53920;51.094;5.902;2023-04-06T01:39:06;2.60;71.14
67005;HTU21D;53920;51.094;5.902;2023-04-06T01:41:36;2.61;70.69
67005;HTU21D;53920;51.094;5.902;2023-04-06T01:44:02;2.60;70.24
67005;HTU21D;53920;51.094;5.902;2023-04-06T01:46:30;2.53;70.33
67005;HTU21D;53920;51.094;5.902;2023-04-06T01:48:57;2.46;70.48
67005;HTU21D;53920;51.094;5.902;2023-04-06T01:51:41;2.39;70.57
67005;HTU21D;53920;51.094;5.902;2023-04-06T01:54:12;2.34;70.64
67005;HTU21D;53920;51.094;5.902;2023-04-06T01:57:04;2.32;70.97
67005;HTU21D;53920;51.094;5.902;2023-04-06T01:59:40;2.38;71.38
67005;HTU21D;53920;51.094;5.902;2023-04-06T02:02:14;2.43;71.36
67005;HTU21D;53920;51.094;5.902;2023-04-06T02:04:49;2.51;71.03
67005;HTU21D;53920;51.094;5.902;2023-04-06T02:07:16;2.52;70.91
67005;HTU21D;53920;51.094;5.902;2023-04-06T02:09:42;2.54;70.87
67005;HTU21D;53920;51.094;5.902;2023-04-06T02:12:14;2.56;70.94
67005;HTU21D;53920;51.094;5.902;2023-04-06T02:14:40;2.55;70.77
67005;HTU21D;53920;51.094;5.902;2023-04-06T02:17:06;2.50;70.97
67005;HTU21D;53920;51.094;5.902;2023-04-06T02:19:34;2.49;71.00
67005;HTU21D;53920;51.094;5.902;2023-04-06T02:22:00;2.44;70.94
67005;HTU21D;53920;51.094;5.902;2023-04-06T02:24:26;2.38;70.92
67005;HTU21D;53920;51.094;5.902;2023-04-06T02:26:52;2.31;71.20
67005;HTU21D;53920;51.094;5.902;2023-04-06T02:29:19;2.29;71.42
67005;HTU21D;53920;51.094;5.902;2023-04-06T02:31:45;2.26;71.42
67005;HTU21D;53920;51.094;5.902;2023-04-06T02:34:12;2.23;71.26
67005;HTU21D;53920;51.094;5.902;2023-04-06T02:36:46;2.19;71.42
67005;HTU21D;53920;51.094;5.902;2023-04-06T02:39:14;2.17;71.52
67005;HTU21D;53920;51.094;5.902;2023-04-06T02:41:40;2.15;71.60
67005;HTU21D;53920;51.094;5.902;2023-04-06T02:44:08;2.13;71.69
67005;HTU21D;53920;51.094;5.902;2023-04-06T02:46:39;2.15;71.73
67005;HTU21D;53920;51.094;5.902;2023-04-06T02:49:05;2.19;71.58
67005;HTU21D;53920;51.094;5.902;2023-04-06T02:51:33;2.21;71.50
67005;HTU21D;53920;51.094;5.902;2023-04-06T02:54:11;2.21;71.50
67005;HTU21D;53920;51.094;5.902;2023-04-06T02:56:37;2.23;71.43
67005;HTU21D;53920;51.094;5.902;2023-04-06T02:59:04;2.25;71.46
67005;HTU21D;53920;51.094;5.902;2023-04-06T03:01:32;2.28;71.39
67005;HTU21D;53920;51.094;5.902;2023-04-06T03:04:03;2.31;71.33
67005;HTU21D;53920;51.094;5.902;2023-04-06T03:06:29;2.39;71.23
67005;HTU21D;53920;51.094;5.902;2023-04-06T03:09:02;2.46;71.07
67005;HTU21D;53920;51.094;5.902;2023-04-06T03:11:29;2.50;70.93
67005;HTU21D;53920;51.094;5.902;2023-04-06T03:13:55;2.55;70.84
67005;HTU21D;53920;51.094;5.902;2023-04-06T03:16:22;2.60;70.79
67005;HTU21D;53920;51.094;5.902;2023-04-06T03:18:48;2.61;70.79
67005;HTU21D;53920;51.094;5.902;2023-04-06T03:21:15;2.62;70.80
67005;HTU21D;53920;51.094;5.902;2023-04-06T03:23:48;2.64;70.90
67005;HTU21D;53920;51.094;5.902;2023-04-06T03:26:17;2.65;70.93
67005;HTU21D;53920;51.094;5.902;2023-04-06T03:28:43;2.66;70.87
67005;HTU21D;53920;51.094;5.902;2023-04-06T03:31:09;2.66;70.90
67005;HTU21D;53920;51.094;5.902;2023-04-06T03:33:50;2.68;70.97
67005;HTU21D;53920;51.094;5.902;2023-04-06T03:36:25;2.72;70.91
67005;HTU21D;53920;51.094;5.902;2023-04-06T03:38:54;2.75;71.01
67005;HTU21D;53920;51.094;5.902;2023-04-06T03:41:21;2.81;71.15
67005;HTU21D;53920;51.094;5.902;2023-04-06T03:43:55;2.88;71.15
67005;HTU21D;53920;51.094;5.902;2023-04-06T03:46:21;2.90;70.88
67005;HTU21D;53920;51.094;5.902;2023-04-06T03:48:50;2.98;71.01
67005;HTU21D;53920;51.094;5.902;2023-04-06T03:51:19;3.13;70.64
67005;HTU21D;53920;51.094;5.902;2023-04-06T03:53:45;3.27;69.99
67005;HTU21D;53920;51.094;5.902;2023-04-06T03:56:11;3.32;69.86
67005;HTU21D;53920;51.094;5.902;2023-04-06T03:58:37;3.32;69.86
67005;HTU21D;53920;51.094;5.902;2023-04-06T04:01:03;3.38;69.60
67005;HTU21D;53920;51.094;5.902;2023-04-06T04:03:29;3.43;69.50
67005;HTU21D;53920;51.094;5.902;2023-04-06T04:05:55;3.49;69.25
67005;HTU21D;53920;51.094;5.902;2023-04-06T04:08:24;3.55;69.13
67005;HTU21D;53920;51.094;5.902;2023-04-06T04:10:50;3.57;69.13
67005;HTU21D;53920;51.094;5.902;2023-04-06T04:13:16;3.60;68.83
67005;HTU21D;53920;51.094;5.902;2023-04-06T04:15:46;3.65;68.46
67005;HTU21D;53920;51.094;5.902;2023-04-06T04:18:13;3.69;68.26
67005;HTU21D;53920;51.094;5.902;2023-04-06T04:20:39;3.69;68.43
67005;HTU21D;53920;51.094;5.902;2023-04-06T04:23:06;3.69;68.47
67005;HTU21D;53920;51.094;5.902;2023-04-06T04:25:33;3.70;68.28
67005;HTU21D;53920;51.094;5.902;2023-04-06T04:27:59;3.69;68.42
67005;HTU21D;53920;51.094;5.902;2023-04-06T04:30:25;3.67;68.52
67005;HTU21D;53920;51.094;5.902;2023-04-06T04:32:51;3.64;68.65
67005;HTU21D;53920;51.094;5.902;2023-04-06T04:35:20;3.62;68.99
67005;HTU21D;53920;51.094;5.902;2023-04-06T04:37:47;3.58;69.28
67005;HTU21D;53920;51.094;5.902;2023-04-06T04:40:13;3.57;69.43
67005;HTU21D;53920;51.094;5.902;2023-04-06T04:42:48;3.50;69.67
67005;HTU21D;53920;51.094;5.902;2023-04-06T04:45:23;3.48;69.78
67005;HTU21D;53920;51.094;5.902;2023-04-06T04:47:49;3.48;69.74
67005;HTU21D;53920;51.094;5.902;2023-04-06T04:50:16;3.48;69.84
67005;HTU21D;53920;51.094;5.902;2023-04-06T04:52:44;3.48;69.79
67005;HTU21D;53920;51.094;5.902;2023-04-06T04:55:15;3.48;69.88
67005;HTU21D;53920;51.094;5.902;2023-04-06T04:57:44;3.49;69.85
67005;HTU21D;53920;51.094;5.902;2023-04-06T05:00:11;3.48;69.90
67005;HTU21D;53920;51.094;5.902;2023-04-06T05:02:41;3.52;69.85
67005;HTU21D;53920;51.094;5.902;2023-04-06T05:05:16;3.56;69.88
67005;HTU21D;53920;51.094;5.902;2023-04-06T05:07:43;3.58;69.77
67005;HTU21D;53920;51.094;5.902;2023-04-06T05:10:15;3.62;69.71
67005;HTU21D;53920;51.094;5.902;2023-04-06T05:12:50;3.70;69.50
67005;HTU21D;53920;51.094;5.902;2023-04-06T05:15:17;3.73;69.33
67005;HTU21D;53920;51.094;5.902;2023-04-06T05:17:43;3.76;69.23
67005;HTU21D;53920;51.094;5.902;2023-04-06T05:20:13;3.87;68.94
67005;HTU21D;53920;51.094;5.902;2023-04-06T05:22:45;3.95;68.95
67005;HTU21D;53920;51.094;5.902;2023-04-06T05:25:12;4.03;68.84
67005;HTU21D;53920;51.094;5.902;2023-04-06T05:27:40;4.15;68.49
67005;HTU21D;53920;51.094;5.902;2023-04-06T05:30:18;4.18;68.36
67005;HTU21D;53920;51.094;5.902;2023-04-06T05:32:46;4.23;68.48
67005;HTU21D;53920;51.094;5.902;2023-04-06T05:35:13;4.26;68.50
67005;HTU21D;53920;51.094;5.902;2023-04-06T05:37:42;4.29;68.59
67005;HTU21D;53920;51.094;5.902;2023-04-06T05:40:09;4.33;68.65
67005;HTU21D;53920;51.094;5.902;2023-04-06T05:42:39;4.32;68.72
67005;HTU21D;53920;51.094;5.902;2023-04-06T05:45:07;4.33;68.53
67005;HTU21D;53920;51.094;5.902;2023-04-06T05:47:34;4.35;68.46
67005;HTU21D;53920;51.094;5.902;2023-04-06T05:50:10;4.38;68.42
67005;HTU21D;53920;51.094;5.902;2023-04-06T05:52:38;4.45;68.55
67005;HTU21D;53920;51.094;5.902;2023-04-06T05:55:07;4.57;68.62
67005;HTU21D;53920;51.094;5.902;2023-04-06T05:57:33;4.74;67.94
67005;HTU21D;53920;51.094;5.902;2023-04-06T05:59:59;4.93;67.65
67005;HTU21D;53920;51.094;5.902;2023-04-06T06:02:38;5.12;67.17
67005;HTU21D;53920;51.094;5.902;2023-04-06T06:05:06;5.25;66.58
67005;HTU21D;53920;51.094;5.902;2023-04-06T06:07:33;5.41;66.05
67005;HTU21D;53920;51.094;5.902;2023-04-06T06:10:02;5.52;65.43
67005;HTU21D;53920;51.094;5.902;2023-04-06T06:12:32;5.63;65.04
67005;HTU21D;53920;51.094;5.902;2023-04-06T06:14:59;5.74;64.70
67005;HTU21D;53920;51.094;5.902;2023-04-06T06:17:27;5.85;64.35
67005;HTU21D;53920;51.094;5.902;2023-04-06T06:19:53;5.95;64.28
67005;HTU21D;53920;51.094;5.902;2023-04-06T06:22:19;6.02;63.89
67005;HTU21D;53920;51.094;5.902;2023-04-06T06:24:46;6.15;64.11
67005;HTU21D;53920;51.094;5.902;2023-04-06T06:27:13;6.27;63.93
67005;HTU21D;53920;51.094;5.902;2023-04-06T06:29:40;6.34;63.24
67005;HTU21D;53920;51.094;5.902;2023-04-06T06:32:06;6.45;62.95
67005;HTU21D;53920;51.094;5.902;2023-04-06T06:34:32;6.57;62.45
67005;HTU21D;53920;51.094;5.902;2023-04-06T06:37:01;6.70;62.23
67005;HTU21D;53920;51.094;5.902;2023-04-06T06:39:30;6.85;61.83
67005;HTU21D;53920;51.094;5.902;2023-04-06T06:41:56;6.99;61.86
67005;HTU21D;53920;51.094;5.902;2023-04-06T06:44:42;7.13;61.64
67005;HTU21D;53920;51.094;5.902;2023-04-06T06:47:08;7.20;61.61
67005;HTU21D;53920;51.094;5.902;2023-04-06T06:49:34;7.38;61.18
67005;HTU21D;53920;51.094;5.902;2023-04-06T06:52:00;7.55;60.76
67005;HTU21D;53920;51.094;5.902;2023-04-06T06:54:26;7.71;59.96
67005;HTU21D;53920;51.094;5.902;2023-04-06T06:56:55;7.88;59.61
67005;HTU21D;53920;51.094;5.902;2023-04-06T06:59:21;8.01;59.25
67005;HTU21D;53920;51.094;5.902;2023-04-06T07:01:50;8.14;58.70
67005;HTU21D;53920;51.094;5.902;2023-04-06T07:04:16;8.26;58.86
67005;HTU21D;53920;51.094;5.902;2023-04-06T07:06:42;8.35;58.25
67005;HTU21D;53920;51.094;5.902;2023-04-06T07:09:08;8.45;58.29
67005;HTU21D;53920;51.094;5.902;2023-04-06T07:11:34;8.57;58.05
67005;HTU21D;53920;51.094;5.902;2023-04-06T07:14:00;8.65;57.01
67005;HTU21D;53920;51.094;5.902;2023-04-06T07:16:26;8.59;56.45
67005;HTU21D;53920;51.094;5.902;2023-04-06T07:18:53;8.61;55.94
67005;HTU21D;53920;51.094;5.902;2023-04-06T07:21:19;8.64;55.34
67005;HTU21D;53920;51.094;5.902;2023-04-06T07:23:45;8.68;54.88
67005;HTU21D;53920;51.094;5.902;2023-04-06T07:26:14;8.76;54.67
67005;HTU21D;53920;51.094;5.902;2023-04-06T07:28:40;8.82;54.38
67005;HTU21D;53920;51.094;5.902;2023-04-06T07:31:08;8.91;54.58
67005;HTU21D;53920;51.094;5.902;2023-04-06T07:33:34;8.96;54.97
67005;HTU21D;53920;51.094;5.902;2023-04-06T07:36:01;9.06;54.98
67005;HTU21D;53920;51.094;5.902;2023-04-06T07:38:28;9.10;54.51
67005;HTU21D;53920;51.094;5.902;2023-04-06T07:40:55;9.18;54.28
67005;HTU21D;53920;51.094;5.902;2023-04-06T07:43:21;9.19;53.78
67005;HTU21D;53920;51.094;5.902;2023-04-06T07:45:51;9.11;53.72
67005;HTU21D;53920;51.094;5.902;2023-04-06T07:48:17;9.05;54.09
67005;HTU21D;53920;51.094;5.902;2023-04-06T07:50:43;9.07;54.26
67005;HTU21D;53920;51.094;5.902;2023-04-06T07:53:10;9.16;54.32
67005;HTU21D;53920;51.094;5.902;2023-04-06T07:55:39;9.29;54.22
67005;HTU21D;53920;51.094;5.902;2023-04-06T07:58:05;9.45;54.17
67005;HTU21D;53920;51.094;5.902;2023-04-06T08:00:31;9.51;53.93
67005;HTU21D;53920;51.094;5.902;2023-04-06T08:02:57;9.70;53.66
67005;HTU21D;53920;51.094;5.902;2023-04-06T08:05:23;9.78;53.25
67005;HTU21D;53920;51.094;5.902;2023-04-06T08:07:49;9.86;53.00
67005;HTU21D;53920;51.094;5.902;2023-04-06T08:10:15;10.03;52.62
67005;HTU21D;53920;51.094;5.902;2023-04-06T08:12:41;10.26;52.49
67005;HTU21D;53920;51.094;5.902;2023-04-06T08:15:07;10.52;52.04
67005;HTU21D;53920;51.094;5.902;2023-04-06T08:17:33;10.68;51.37
67005;HTU21D;53920;51.094;5.902;2023-04-06T08:20:00;10.73;51.70
67005;HTU21D;53920;51.094;5.902;2023-04-06T08:22:26;10.81;51.30
67005;HTU21D;53920;51.094;5.902;2023-04-06T08:24:52;10.90;51.17
67005;HTU21D;53920;51.094;5.902;2023-04-06T08:27:18;11.10;50.66
67005;HTU21D;53920;51.094;5.902;2023-04-06T08:29:44;11.18;49.87
67005;HTU21D;53920;51.094;5.902;2023-04-06T08:32:10;11.31;49.65
67005;HTU21D;53920;51.094;5.902;2023-04-06T08:34:36;11.44;49.52
67005;HTU21D;53920;51.094;5.902;2023-04-06T08:37:02;11.71;49.47
67005;HTU21D;53920;51.094;5.902;2023-04-06T08:39:28;12.10;48.50
67005;HTU21D;53920;51.094;5.902;2023-04-06T08:41:56;12.41;47.63
67005;HTU21D;53920;51.094;5.902;2023-04-06T08:44:25;12.64;47.12
67005;HTU21D;53920;51.094;5.902;2023-04-06T08:46:52;12.89;46.76
67005;HTU21D;53920;51.094;5.902;2023-04-06T08:49:18;13.11;45.70
67005;HTU21D;53920;51.094;5.902;2023-04-06T08:51:44;13.21;45.24
67005;HTU21D;53920;51.094;5.902;2023-04-06T08:54:11;13.34;44.40
67005;HTU21D;53920;51.094;5.902;2023-04-06T08:56:38;13.54;43.46
67005;HTU21D;53920;51.094;5.902;2023-04-06T08:59:08;13.54;42.45
67005;HTU21D;53920;51.094;5.902;2023-04-06T09:01:39;13.47;42.03
67005;HTU21D;53920;51.094;5.902;2023-04-06T09:04:08;13.46;42.00
67005;HTU21D;53920;51.094;5.902;2023-04-06T09:06:37;13.35;41.64
67005;HTU21D;53920;51.094;5.902;2023-04-06T09:09:03;13.04;42.38
67005;HTU21D;53920;51.094;5.902;2023-04-06T09:14:09;13.06;42.29
67005;HTU21D;53920;51.094;5.902;2023-04-06T09:16:44;12.74;42.14
67005;HTU21D;53920;51.094;5.902;2023-04-06T09:19:12;12.47;42.97
67005;HTU21D;53920;51.094;5.902;2023-04-06T09:21:38;12.43;43.37
67005;HTU21D;53920;51.094;5.902;2023-04-06T09:24:07;12.47;43.45
67005;HTU21D;53920;51.094;5.902;2023-04-06T09:26:45;12.40;43.23
67005;HTU21D;53920;51.094;5.902;2023-04-06T09:29:22;12.23;43.53
67005;HTU21D;53920;51.094;5.902;2023-04-06T09:31:50;12.33;43.78
67005;HTU21D;53920;51.094;5.902;2023-04-06T09:34:25;12.45;44.03
67005;HTU21D;53920;51.094;5.902;2023-04-06T09:36:51;12.58;43.48
67005;HTU21D;53920;51.094;5.902;2023-04-06T09:39:21;12.52;43.53
67005;HTU21D;53920;51.094;5.902;2023-04-06T09:41:51;12.50;43.67
67005;HTU21D;53920;51.094;5.902;2023-04-06T09:44:18;12.66;43.35
67005;HTU21D;53920;51.094;5.902;2023-04-06T09:46:45;12.66;42.81
67005;HTU21D;53920;51.094;5.902;2023-04-06T09:49:13;12.69;43.17
67005;HTU21D;53920;51.094;5.902;2023-04-06T09:51:41;12.81;42.92
67005;HTU21D;53920;51.094;5.902;2023-04-06T09:54:11;13.00;42.43
67005;HTU21D;53920;51.094;5.902;2023-04-06T09:56:47;13.19;41.94
67005;HTU21D;53920;51.094;5.902;2023-04-06T09:59:21;13.52;42.03
67005;HTU21D;53920;51.094;5.902;2023-04-06T10:01:51;13.84;41.58
67005;HTU21D;53920;51.094;5.902;2023-04-06T10:07:25;14.09;41.23
67005;HTU21D;53920;51.094;5.902;2023-04-06T10:09:53;14.03;41.18
67005;HTU21D;53920;51.094;5.902;2023-04-06T10:12:20;13.85;41.52
67005;HTU21D;53920;51.094;5.902;2023-04-06T10:14:48;13.96;41.85
67005;HTU21D;53920;51.094;5.902;2023-04-06T10:17:14;13.98;41.58
67005;HTU21D;53920;51.094;5.902;2023-04-06T10:23:08;14.26;40.50
67005;HTU21D;53920;51.094;5.902;2023-04-06T10:25:35;14.04;40.82
67005;HTU21D;53920;51.094;5.902;2023-04-06T10:28:07;13.77;41.15
67005;HTU21D;53920;51.094;5.902;2023-04-06T10:30:42;13.74;41.65
67005;HTU21D;53920;51.094;5.902;2023-04-06T10:33:19;14.01;41.51
67005;HTU21D;53920;51.094;5.902;2023-04-06T10:35:46;14.22;40.85
67005;HTU21D;53920;51.094;5.902;2023-04-06T10:38:15;14.00;41.21
67005;HTU21D;53920;51.094;5.902;2023-04-06T10:40:45;13.97;41.96
67005;HTU21D;53920;51.094;5.902;2023-04-06T10:43:20;14.23;41.61
67005;HTU21D;53920;51.094;5.902;2023-04-06T10:45:58;14.29;41.46
67005;HTU21D;53920;51.094;5.902;2023-04-06T10:48:25;14.15;41.94
67005;HTU21D;53920;51.094;5.902;2023-04-06T10:51:09;13.93;42.21
67005;HTU21D;53920;51.094;5.902;2023-04-06T10:53:35;13.54;43.24
67005;HTU21D;53920;51.094;5.902;2023-04-06T10:56:02;13.27;44.65
67005;HTU21D;53920;51.094;5.902;2023-04-06T10:58:29;13.21;45.75
67005;HTU21D;53920;51.094;5.902;2023-04-06T11:00:56;12.95;46.83
67005;HTU21D;53920;51.094;5.902;2023-04-06T11:03:22;12.76;47.22
67005;HTU21D;53920;51.094;5.902;2023-04-06T11:05:50;12.73;46.99
67005;HTU21D;53920;51.094;5.902;2023-04-06T11:08:33;12.63;47.38
67005;HTU21D;53920;51.094;5.902;2023-04-06T11:11:07;12.51;47.15
67005;HTU21D;53920;51.094;5.902;2023-04-06T11:13:45;12.25;48.46
67005;HTU21D;53920;51.094;5.902;2023-04-06T11:16:22;11.97;50.55
67005;HTU21D;53920;51.094;5.902;2023-04-06T11:18:54;11.71;52.51
67005;HTU21D;53920;51.094;5.902;2023-04-06T11:21:45;11.22;54.01
67005;HTU21D;53920;51.094;5.902;2023-04-06T11:24:17;10.79;55.80
67005;HTU21D;53920;51.094;5.902;2023-04-06T11:29:19;10.67;56.41
67005;HTU21D;53920;51.094;5.902;2023-04-06T11:31:54;10.52;57.50
67005;HTU21D;53920;51.094;5.902;2023-04-06T11:34:25;10.30;59.48
67005;HTU21D;53920;51.094;5.902;2023-04-06T11:36:56;10.18;60.26
67005;HTU21D;53920;51.094;5.902;2023-04-06T11:39:27;10.00;61.18
67005;HTU21D;53920;51.094;5.902;2023-04-06T11:41:59;9.92;62.55
67005;HTU21D;53920;51.094;5.902;2023-04-06T11:44:35;9.93;63.31
67005;HTU21D;53920;51.094;5.902;2023-04-06T11:47:04;9.76;63.84
67005;HTU21D;53920;51.094;5.902;2023-04-06T11:49:32;9.59;64.74
67005;HTU21D;53920;51.094;5.902;2023-04-06T11:52:02;9.44;65.83
67005;HTU21D;53920;51.094;5.902;2023-04-06T11:54:36;9.25;66.91
67005;HTU21D;53920;51.094;5.902;2023-04-06T11:57:05;9.03;67.38
67005;HTU21D;53920;51.094;5.902;2023-04-06T11:59:31;8.90;68.72
67005;HTU21D;53920;51.094;5.902;2023-04-06T12:01:58;8.82;69.42
67005;HTU21D;53920;51.094;5.902;2023-04-06T12:04:24;8.66;69.77
67005;HTU21D;53920;51.094;5.902;2023-04-06T12:06:50;8.68;70.78
67005;HTU21D;53920;51.094;5.902;2023-04-06T12:09:18;8.86;71.27
67005;HTU21D;53920;51.094;5.902;2023-04-06T12:11:44;8.77;71.51
67005;HTU21D;53920;51.094;5.902;2023-04-06T12:14:11;8.88;72.24
67005;HTU21D;53920;51.094;5.902;2023-04-06T12:16:37;8.97;72.11
67005;HTU21D;53920;51.094;5.902;2023-04-06T12:19:03;9.08;71.80
67005;HTU21D;53920;51.094;5.902;2023-04-06T12:21:30;9.07;71.10
67005;HTU21D;53920;51.094;5.902;2023-04-06T12:23:58;9.08;70.90
67005;HTU21D;53920;51.094;5.902;2023-04-06T12:26:24;9.05;70.94
67005;HTU21D;53920;51.094;5.902;2023-04-06T12:28:51;9.14;71.01
67005;HTU21D;53920;51.094;5.902;2023-04-06T12:31:19;9.22;70.40
67005;HTU21D;53920;51.094;5.902;2023-04-06T12:33:51;9.21;70.90
67005;HTU21D;53920;51.094;5.902;2023-04-06T12:36:19;9.27;70.84
67005;HTU21D;53920;51.094;5.902;2023-04-06T12:38:49;9.06;71.14
67005;HTU21D;53920;51.094;5.902;2023-04-06T12:41:15;9.08;71.29
67005;HTU21D;53920;51.094;5.902;2023-04-06T12:43:42;8.95;71.76
67005;HTU21D;53920;51.094;5.902;2023-04-06T12:46:08;8.83;72.13
67005;HTU21D;53920;51.094;5.902;2023-04-06T12:48:35;8.77;73.14
67005;HTU21D;53920;51.094;5.902;2023-04-06T12:51:03;8.81;73.42
67005;HTU21D;53920;51.094;5.902;2023-04-06T12:53:30;8.85;73.91
67005;HTU21D;53920;51.094;5.902;2023-04-06T12:56:02;8.96;74.64
67005;HTU21D;53920;51.094;5.902;2023-04-06T12:58:28;9.04;74.86
67005;HTU21D;53920;51.094;5.902;2023-04-06T13:00:57;9.16;74.91
67005;HTU21D;53920;51.094;5.902;2023-04-06T13:03:23;9.14;74.44
67005;HTU21D;53920;51.094;5.902;2023-04-06T13:05:50;9.18;75.02
67005;HTU21D;53920;51.094;5.902;2023-04-06T13:08:18;9.18;74.33
67005;HTU21D;53920;51.094;5.902;2023-04-06T13:10:46;9.31;74.20
67005;HTU21D;53920;51.094;5.902;2023-04-06T13:13:14;9.33;74.24
67005;HTU21D;53920;51.094;5.902;2023-04-06T13:15:41;9.49;74.28
67005;HTU21D;53920;51.094;5.902;2023-04-06T13:18:08;9.52;74.09
67005;HTU21D;53920;51.094;5.902;2023-04-06T13:20:34;9.52;74.25
67005;HTU21D;53920;51.094;5.902;2023-04-06T13:23:01;9.44;74.45
67005;HTU21D;53920;51.094;5.902;2023-04-06T13:25:28;9.42;74.83
67005;HTU21D;53920;51.094;5.902;2023-04-06T13:27:55;9.42;74.62
67005;HTU21D;53920;51.094;5.902;2023-04-06T13:30:21;9.47;74.63
67005;HTU21D;53920;51.094;5.902;2023-04-06T13:32:47;9.44;74.91
67005;HTU21D;53920;51.094;5.902;2023-04-06T13:35:13;9.41;75.00
67005;HTU21D;53920;51.094;5.902;2023-04-06T13:37:39;9.34;74.94
67005;HTU21D;53920;51.094;5.902;2023-04-06T13:40:06;9.29;75.12
67005;HTU21D;53920;51.094;5.902;2023-04-06T13:42:32;9.08;75.57
67005;HTU21D;53920;51.094;5.902;2023-04-06T13:45:00;9.04;75.43
67005;HTU21D;53920;51.094;5.902;2023-04-06T13:47:26;9.01;75.77
67005;HTU21D;53920;51.094;5.902;2023-04-06T13:49:53;9.06;76.00
67005;HTU21D;53920;51.094;5.902;2023-04-06T13:52:20;9.12;75.99
67005;HTU21D;53920;51.094;5.902;2023-04-06T13:54:48;9.16;76.01
67005;HTU21D;53920;51.094;5.902;2023-04-06T13:57:14;9.16;75.95
67005;HTU21D;53920;51.094;5.902;2023-04-06T13:59:40;9.30;76.05
67005;HTU21D;53920;51.094;5.902;2023-04-06T14:02:08;9.33;76.61
67005;HTU21D;53920;51.094;5.902;2023-04-06T14:04:35;9.45;76.24
67005;HTU21D;53920;51.094;5.902;2023-04-06T14:07:02;9.42;75.88
67005;HTU21D;53920;51.094;5.902;2023-04-06T14:09:29;9.41;76.18
67005;HTU21D;53920;51.094;5.902;2023-04-06T14:11:56;9.38;76.34
67005;HTU21D;53920;51.094;5.902;2023-04-06T14:14:23;9.35;76.86
67005;HTU21D;53920;51.094;5.902;2023-04-06T14:16:49;9.36;76.66
67005;HTU21D;53920;51.094;5.902;2023-04-06T14:19:16;9.27;76.94
67005;HTU21D;53920;51.094;5.902;2023-04-06T14:21:46;9.30;77.51
67005;HTU21D;53920;51.094;5.902;2023-04-06T14:24:13;9.33;77.41
67005;HTU21D;53920;51.094;5.902;2023-04-06T14:26:40;9.29;77.79
67005;HTU21D;53920;51.094;5.902;2023-04-06T14:29:07;9.19;78.06
67005;HTU21D;53920;51.094;5.902;2023-04-06T14:31:34;9.09;78.37
67005;HTU21D;53920;51.094;5.902;2023-04-06T14:34:02;9.05;78.16
67005;HTU21D;53920;51.094;5.902;2023-04-06T14:36:31;9.09;78.11
67005;HTU21D;53920;51.094;5.902;2023-04-06T14:39:05;9.21;77.57
67005;HTU21D;53920;51.094;5.902;2023-04-06T14:41:33;9.21;77.50
67005;HTU21D;53920;51.094;5.902;2023-04-06T14:44:00;9.23;77.14
67005;HTU21D;53920;51.094;5.902;2023-04-06T14:46:26;9.20;76.62
67005;HTU21D;53920;51.094;5.902;2023-04-06T14:48:56;9.23;76.60
67005;HTU21D;53920;51.094;5.902;2023-04-06T14:51:26;9.27;76.15
67005;HTU21D;53920;51.094;5.902;2023-04-06T14:53:53;9.32;75.80
67005;HTU21D;53920;51.094;5.902;2023-04-06T14:56:21;9.34;75.37
67005;HTU21D;53920;51.094;5.902;2023-04-06T14:58:47;9.45;74.70
67005;HTU21D;53920;51.094;5.902;2023-04-06T15:01:13;9.52;74.57
67005;HTU21D;53920;51.094;5.902;2023-04-06T15:03:39;9.60;74.08
67005;HTU21D;53920;51.094;5.902;2023-04-06T15:06:06;9.55;74.12
67005;HTU21D;53920;51.094;5.902;2023-04-06T15:08:39;9.55;74.09
67005;HTU21D;53920;51.094;5.902;2023-04-06T15:11:05;9.53;74.17
67005;HTU21D;53920;51.094;5.902;2023-04-06T15:13:31;9.48;74.14
67005;HTU21D;53920;51.094;5.902;2023-04-06T15:15:57;9.52;74.19
67005;HTU21D;53920;51.094;5.902;2023-04-06T15:18:23;9.52;73.73
67005;HTU21D;53920;51.094;5.902;2023-04-06T15:20:49;9.52;73.80
67005;HTU21D;53920;51.094;5.902;2023-04-06T15:23:15;9.60;73.32
67005;HTU21D;53920;51.094;5.902;2023-04-06T15:25:41;9.52;73.78
67005;HTU21D;53920;51.094;5.902;2023-04-06T15:28:07;9.49;74.03
67005;HTU21D;53920;51.094;5.902;2023-04-06T15:30:34;9.44;74.01
67005;HTU21D;53920;51.094;5.902;2023-04-06T15:33:01;9.35;74.02
67005;HTU21D;53920;51.094;5.902;2023-04-06T15:35:31;9.32;74.18
67005;HTU21D;53920;51.094;5.902;2023-04-06T15:37:57;9.41;73.74
67005;HTU21D;53920;51.094;5.902;2023-04-06T15:40:24;9.36;73.90
67005;HTU21D;53920;51.094;5.902;2023-04-06T15:42:50;9.38;73.91
67005;HTU21D;53920;51.094;5.902;2023-04-06T15:45:17;9.46;74.04
67005;HTU21D;53920;51.094;5.902;2023-04-06T15:47:44;9.38;74.96